Flight Track Log - Related Links

Times and Time Zones

All times are in EST time to prevent confusion due to time zone crossing. See the N16490 flight status page for this flight to view local times or setup timezone preferences in your user account.


Time Position Orientation Groundspeed Altitude Reporting Facility
EST Latitude Longitude Course Direction KTS MPH feet Rate Location/Type
Mon 12:30:17 PM 40.0461 -79.2361 280° West 94 108 4,400  Level Cleveland Center
Mon 12:31:14 PM 40.0497 -79.2617 280° West 94 108 4,500  Climbing Cleveland Center
Mon 12:31:18 PM 40.0475 -79.2692 249° West 93 107 4,400  Descending Cleveland Center
Mon 12:32:24 PM 40.0508 -79.3025 277° West 88 101 4,500 100 Climbing Cleveland Center
Mon 12:33:18 PM 40.0539 -79.3325 278° West 89 102 4,600  Climbing Cleveland Center
Mon 12:33:25 PM 40.0519 -79.3381 245° Southwest 90 104 4,500  Descending Cleveland Center
Mon 12:34:20 PM 40.0536 -79.3653 275° West 90 104 4,600  Climbing Cleveland Center
Mon 12:34:26 PM 40.0533 -79.3711 266° West 91 105 4,500 -100 Descending Cleveland Center
Mon 12:35:20 PM 40.0531 -79.4011 269° West 90 104 4,500 107 Level Cleveland Center
Mon 12:35:22 PM 40.0550 -79.3983 48° Northeast 91 105 4,600 -98 Climbing Cleveland Center
Mon 12:36:21 PM 40.0544 -79.4339 269° West 95 109 4,400 -97 Descending Cleveland Center
Mon 12:36:24 PM 40.0553 -79.4331 37° Northeast 94 108 4,500  Climbing Cleveland Center
Mon 12:37:28 PM 40.0547 -79.4778 269° West 100 115 4,400 -54 Descending Cleveland Center
Mon 12:38:16 PM 40.0547 -79.5022 270° West 100 115 4,400 100 Level Cleveland Center
Mon 12:38:28 PM 40.0569 -79.5106 289° West 97 112 4,500 162 Climbing Cleveland Center
Mon 12:39:30 PM 40.0572 -79.5428 271° West 91 105 4,600 48 Climbing Cleveland Center
Mon 12:40:32 PM 40.0589 -79.5722 274° West 85 98 4,600  Level Cleveland Center
Mon 12:41:34 PM 40.0589 -79.6028 270° West 84 97 4,600 48 Level Cleveland Center
Mon 12:42:36 PM 40.0581 -79.6328 268° West 83 96 4,700 48 Climbing Cleveland Center
Mon 12:43:38 PM 40.0561 -79.6639 265° West 85 98 4,700 -49 Level Cleveland Center
Mon 12:44:39 PM 40.0547 -79.6953 267° West 86 99 4,600 -49 Descending Cleveland Center
Mon 12:45:41 PM 40.0517 -79.7331 264° West 88 101 4,600 48 Level Cleveland Center
Mon 12:46:43 PM 40.0503 -79.7644 267° West 88 101 4,700  Climbing Cleveland Center
Mon 12:47:45 PM 40.0492 -79.7969 267° West 89 102 4,600 -97 Descending Cleveland Center
Mon 12:48:47 PM 40.0481 -79.8294 267° West 89 102 4,500 -48 Descending Cleveland Center
Mon 12:49:49 PM 40.0464 -79.8625 266° West 91 105 4,500 48 Level Cleveland Center
Mon 12:50:51 PM 40.0453 -79.8967 268° West 93 107 4,600  Climbing Cleveland Center
Mon 12:51:53 PM 40.0433 -79.9356 266° West 91 105 4,500 -48 Descending Cleveland Center
Mon 12:52:55 PM 40.0431 -79.9694 269° West 92 106 4,500  Level Cleveland Center
Mon 12:53:57 PM 40.0433 -80.0022 271° West 92 106 4,500  Level Cleveland Center
Mon 12:54:59 PM 40.0425 -80.0356 268° West 92 106 4,500  Level Cleveland Center
Mon 12:56:01 PM 40.0422 -80.0683 269° West 91 105 4,500  Level Cleveland Center
Mon 12:57:03 PM 40.0431 -80.1011 272° West 91 105 4,500 48 Level Cleveland Center
Mon 12:58:05 PM 40.0433 -80.1400 271° West 90 104 4,600 48 Climbing Cleveland Center
Mon 12:59:07 PM 40.0428 -80.1725 269° West 90 104 4,600  Level Cleveland Center
Mon 01:00:09 PM 40.0433 -80.2058 271° West 90 104 4,600  Level Cleveland Center
Mon 01:01:11 PM 40.0436 -80.2386 271° West 91 105 4,600  Level Cleveland Center
Mon 01:02:13 PM 40.0447 -80.2711 273° West 90 104 4,600  Level Cleveland Center
Mon 01:03:15 PM 40.0453 -80.3042 271° West 90 104 4,600  Level Cleveland Center
Mon 01:04:17 PM 40.0464 -80.3378 272° West 91 105 4,600  Level Cleveland Center
Mon 01:05:19 PM 40.0458 -80.3778 269° West 92 106 4,600  Level Cleveland Center
Mon 01:06:20 PM 40.0461 -80.4111 271° West 92 106 4,600 -49 Level Cleveland Center
Mon 01:07:22 PM 40.0453 -80.4456 268° West 93 107 4,500  Descending Cleveland Center
Mon 01:08:24 PM 40.0453 -80.4792 270° West 94 108 4,600 48 Climbing Cleveland Center
Mon 01:09:26 PM 40.0442 -80.5131 268° West 93 107 4,600 -49 Level Cleveland Center
Mon 01:10:27 PM 40.0436 -80.5467 269° West 93 107 4,500 -98 Descending Cleveland Center
Mon 01:11:29 PM 40.0431 -80.5792 269° West 92 106 4,400  Descending Cleveland Center
Mon 01:12:31 PM 40.0422 -80.6192 268° West 92 106 4,500 97 Climbing Cleveland Center
Mon 01:13:33 PM 40.0419 -80.6511 269° West 90 104 4,600  Climbing Cleveland Center
Mon 01:14:34 PM 40.0419 -80.6822 270° West 88 101 4,500  Descending Cleveland Center
Mon 01:15:36 PM 40.0417 -80.7131 269° West 87 100 4,600 48 Climbing Cleveland Center
Mon 01:16:38 PM 40.0417 -80.7461 270° West 88 101 4,600  Level Cleveland Center
Mon 01:17:39 PM 40.0417 -80.7772 270° West 88 101 4,600 -49 Level Cleveland Center
Mon 01:18:41 PM 40.0425 -80.8094 272° West 87 100 4,500 -49 Descending Cleveland Center
Mon 01:19:42 PM 40.0425 -80.8431 270° West 90 104 4,500  Level Cleveland Center
Mon 01:20:44 PM 40.0422 -80.8822 269° West 90 104 4,500  Level Cleveland Center
Mon 01:21:46 PM 40.0417 -80.9139 269° West 89 102 4,500  Level Cleveland Center
Mon 01:22:47 PM 40.0408 -80.9450 268° West 88 101 4,500  Level Cleveland Center
Mon 01:23:49 PM 40.0411 -80.9767 271° West 87 100 4,500  Level Cleveland Center
Mon 01:24:50 PM 40.0422 -81.0083 273° West 87 100 4,500  Level Cleveland Center
Mon 01:25:52 PM 40.0425 -81.0397 271° West 87 100 4,500  Level Cleveland Center
Mon 01:26:54 PM 40.0419 -81.0711 269° West 87 100 4,500 49 Level Cleveland Center
Mon 01:27:55 PM 40.0419 -81.1036 270° West 89 102 4,600 49 Climbing Cleveland Center
Mon 01:28:57 PM 40.0436 -81.1406 273° West 87 100 4,600  Level Cleveland Center
Mon 01:29:58 PM 40.0442 -81.1708 271° West 85 98 4,600  Level Cleveland Center
Mon 01:31:00 PM 40.0444 -81.2042 271° West 88 101 4,600  Level Cleveland Center
Mon 01:32:01 PM 40.0442 -81.2336 269° West 86 99 4,600 -49 Level Cleveland Center
Mon 01:33:03 PM 40.0425 -81.2653 266° West 86 99 4,500 -97 Descending Cleveland Center
Mon 01:34:05 PM 40.0406 -81.2967 265° West 86 99 4,400 -49 Descending Cleveland Center
Mon 01:35:06 PM 40.0400 -81.3278 269° West 86 99 4,400 49 Level Cleveland Center
Mon 01:36:08 PM 40.0392 -81.3631 268° West 84 97 4,500 48 Climbing Cleveland Center
Mon 01:37:10 PM 40.0372 -81.3944 265° West 85 98 4,500 -179 Level Cleveland Center
Mon 01:38:22 PM 40.0353 -81.4244 265° West 83 96 4,100 -45 Descending Indianapolis Center
Mon 01:39:23 PM 40.0319 -81.4619 263° West 88 101 4,400 146 Climbing Indianapolis Center
Mon 01:40:25 PM 40.0317 -81.4897 269° West 82 94 4,400 48 Level Indianapolis Center
Mon 01:41:27 PM 40.0311 -81.5200 269° West 81 93 4,500  Climbing Indianapolis Center
Mon 01:42:28 PM 40.0306 -81.5525 269° West 83 96 4,400 -49 Descending Indianapolis Center
Mon 01:43:30 PM 40.0294 -81.5864 268° West 87 100 4,400 -48 Level Indianapolis Center
Mon 01:44:32 PM 40.0292 -81.6219 269° West 87 100 4,300 -97 Descending Indianapolis Center
Mon 01:47:00 PM 40.0245 -81.6771 264° West  Level FlightAware Approximate
Mon 01:54:00 PM 40.0040 -81.9156 264° West  Level FlightAware Approximate
Mon 01:55:00 PM 40.0010 -81.9497 264° West  Level FlightAware Approximate
Mon 01:56:00 PM 39.9980 -81.9838 263° West  Level FlightAware Approximate
Mon 01:57:00 PM 39.9950 -82.0178 263° West  Level FlightAware Approximate
Mon 01:58:00 PM 39.9920 -82.0519 263° West  Level FlightAware Approximate
Mon 01:59:00 PM 39.9890 -82.0859 263° West  Level FlightAware Approximate
Mon 02:00:00 PM 39.9860 -82.1200 263° West  Level FlightAware Approximate
Mon 02:01:00 PM 39.9832 -82.1556 268° West  Level FlightAware Approximate
Mon 02:02:00 PM 39.9825 -82.1899 268° West  Level FlightAware Approximate
Mon 02:03:00 PM 39.9818 -82.2241 268° West  Level FlightAware Approximate
Mon 02:04:00 PM 39.9811 -82.2584 268° West  Level FlightAware Approximate
Mon 02:05:00 PM 39.9803 -82.2926 268° West  Level FlightAware Approximate
Mon 02:06:00 PM 39.9796 -82.3269 268° West  Level FlightAware Approximate
Mon 02:07:00 PM 39.9788 -82.3612 268° West  Level FlightAware Approximate
Mon 02:08:00 PM 39.9780 -82.3954 268° West  Level FlightAware Approximate
Mon 02:09:00 PM 39.9773 -82.4297 268° West  Level FlightAware Approximate
Mon 02:10:00 PM 39.9765 -82.4640 268° West  Level FlightAware Approximate
Mon 02:11:00 PM 39.9757 -82.4982 268° West  Level FlightAware Approximate
Mon 02:12:00 PM 39.9749 -82.5325 268° West  Level FlightAware Approximate
Mon 02:13:00 PM 39.9740 -82.5667 268° West  Level FlightAware Approximate
Mon 02:14:00 PM 39.9732 -82.6010 268° West  Level FlightAware Approximate
Mon 02:15:00 PM 39.9724 -82.6352 268° West  Level FlightAware Approximate
Mon 02:16:00 PM 39.9715 -82.6695 268° West  Level FlightAware Approximate
Mon 02:17:00 PM 39.9707 -82.7038 268° West  Level FlightAware Approximate
Mon 02:18:00 PM 39.9698 -82.7380 268° West  Level FlightAware Approximate
Mon 02:19:00 PM 39.9689 -82.7723 268° West  Level FlightAware Approximate
Mon 02:20:00 PM 39.9680 -82.8065 268° West  Level FlightAware Approximate
Mon 02:21:00 PM 39.9671 -82.8408 268° West  Level FlightAware Approximate
Mon 02:22:00 PM 39.9662 -82.8750 268° West  Level FlightAware Approximate
Mon 02:23:00 PM 39.9653 -82.9093 268° West  Level FlightAware Approximate
Mon 02:24:00 PM 39.9644 -82.9435 268° West  Level FlightAware Approximate
Mon 02:25:00 PM 39.9634 -82.9778 268° West  Level FlightAware Approximate
Mon 02:26:00 PM 39.9625 -83.0120 268° West  Level FlightAware Approximate
Mon 02:27:00 PM 39.9615 -83.0463 268° West  Level FlightAware Approximate
Mon 02:28:00 PM 39.9605 -83.0805 268° West  Level FlightAware Approximate
Mon 02:29:00 PM 39.9596 -83.1147 268° West  Level FlightAware Approximate
Mon 02:30:00 PM 39.9586 -83.1490 268° West  Level FlightAware Approximate
Mon 02:31:00 PM 39.9576 -83.1832 268° West  Level FlightAware Approximate
Mon 02:32:00 PM 39.9566 -83.2175 268° West  Level FlightAware Approximate
Mon 02:33:00 PM 39.9556 -83.2517 268° West  Level FlightAware Approximate
Mon 02:34:00 PM 39.9545 -83.2859 268° West  Level FlightAware Approximate
Mon 02:35:00 PM 39.9535 -83.3202 268° West  Level FlightAware Approximate
Mon 02:36:00 PM 39.9524 -83.3544 268° West  Level FlightAware Approximate
Mon 02:37:00 PM 39.9514 -83.3887 268° West  Level FlightAware Approximate
Mon 02:38:00 PM 39.9503 -83.4229 268° West  Level FlightAware Approximate
Mon 02:39:00 PM 39.9488 -83.4571 266° West  Level FlightAware Approximate
Mon 02:40:00 PM 39.9470 -83.4913 266° West  Level FlightAware Approximate
Mon 02:41:00 PM 39.9453 -83.5255 266° West  Level FlightAware Approximate
Mon 02:42:00 PM 39.9435 -83.5596 266° West  Level FlightAware Approximate
Mon 02:43:00 PM 39.9417 -83.5938 266° West  Level FlightAware Approximate
Mon 02:44:00 PM 39.9399 -83.6280 266° West  Level FlightAware Approximate
Mon 02:45:00 PM 39.9380 -83.6622 266° West  Level FlightAware Approximate
Mon 02:46:00 PM 39.9362 -83.6963 266° West  Level FlightAware Approximate
Mon 02:47:00 PM 39.9344 -83.7305 266° West  Level FlightAware Approximate
Mon 02:48:00 PM 39.9322 -83.7646 264° West  Level FlightAware Approximate
Mon 02:49:00 PM 39.9296 -83.7987 264° West  Level FlightAware Approximate
Mon 02:50:00 PM 39.9270 -83.8328 264° West  Level FlightAware Approximate
Mon 02:51:00 PM 39.9244 -83.8669 264° West  Level FlightAware Approximate
Mon 02:52:00 PM 39.9218 -83.9010 264° West  Level FlightAware Approximate
Mon 02:53:00 PM 39.9191 -83.9350 264° West  Level FlightAware Approximate
Mon 02:54:00 PM 39.9167 -83.9691 270° West  Level FlightAware Approximate
Mon 02:55:00 PM 39.9167 -84.0000 270° West  Level FlightAware Approximate
Mon 02:56:00 PM 39.9309 -84.0135 270° West  Level Estimated
Mon 02:57:00 PM 39.9309 -84.0135 270° West  Level Estimated
Mon 02:58:00 PM 39.9309 -84.0135 270° West  Level Estimated
Mon 02:59:00 PM 39.9309 -84.0135 270° West  Level Estimated
Mon 03:00:00 PM 39.9309 -84.0135 270° West  Level Estimated
Mon 03:01:00 PM 39.9309 -84.0135 270° West  Level Estimated
Mon 03:02:00 PM 39.9309 -84.0135 270° West  Level Estimated
Mon 03:03:00 PM 39.9309 -84.0135 270° West  Level Estimated
Mon 03:04:00 PM 39.9309 -84.0135 270° West  Level Estimated
Mon 03:05:00 PM 39.9309 -84.0135 270° West  Level Estimated
Mon 03:06:00 PM 39.9309 -84.0135 270° West  Level Estimated
Mon 03:07:00 PM 39.9309 -84.0135 270° West  Level Estimated
Mon 03:08:00 PM 39.9309 -84.0135 270° West  Level Estimated
Mon 03:09:00 PM 39.9309 -84.0135 270° West  Level Estimated
Mon 03:10:00 PM 39.9309 -84.0135 270° West  Level Estimated

Login

Don't have an account? Register now (free) for customized features, flight alerts, and more!